createdAt,value
2023-01-17T00:02:17.283Z,98572.03
2023-01-17T00:05:04.036Z,98577.34
2023-01-17T00:07:51.223Z,98576.66
2023-01-17T00:13:22.643Z,98569.09
2023-01-17T00:15:50.398Z,98567.56
2023-01-17T00:18:17.993Z,98566.81
2023-01-17T00:21:04.010Z,98564.94
2023-01-17T00:23:59.287Z,98558.13
2023-01-17T00:26:27.602Z,98566.81
2023-01-17T00:28:55.237Z,98572.25
2023-01-17T00:31:22.800Z,98569.78
2023-01-17T00:33:50.412Z,98569.97
2023-01-17T00:36:17.956Z,98572.59
2023-01-17T00:38:45.457Z,98571.66
2023-01-17T00:41:15.243Z,98563.69
2023-01-17T00:44:42.359Z,98563.78
2023-01-17T00:47:28.701Z,98570.59
2023-01-17T00:50:14.838Z,98559.38
2023-01-17T00:53:01.019Z,98558.66
2023-01-17T00:55:47.112Z,98553.88
2023-01-17T00:58:39.406Z,98549.16
2023-01-17T01:01:26.229Z,98544.25
2023-01-17T01:04:12.445Z,98552.72
2023-01-17T01:06:58.558Z,98554.31
2023-01-17T01:09:44.611Z,98546.44
2023-01-17T01:12:30.525Z,98542.88
2023-01-17T01:15:16.815Z,98540.38
2023-01-17T01:18:02.973Z,98550.19
2023-01-17T01:20:49.083Z,98545.91
2023-01-17T01:23:35.129Z,98552.94
2023-01-17T01:26:22.760Z,98545.84
2023-01-17T01:29:08.794Z,98542.16
2023-01-17T01:31:55.166Z,98542.06
2023-01-17T01:34:23.168Z,98553.47
2023-01-17T01:36:50.751Z,98552.72
2023-01-17T01:39:18.393Z,98551.06
2023-01-17T01:41:45.986Z,98548.66
2023-01-17T01:44:49.051Z,98547.72
2023-01-17T01:47:33.715Z,98552.19
2023-01-17T01:50:05.810Z,98550.41
2023-01-17T01:52:37.039Z,98543.53
2023-01-17T01:55:09.703Z,98544.47
2023-01-17T01:57:42.568Z,98547.19
2023-01-17T02:00:21.679Z,98543.44
2023-01-17T02:02:51.758Z,98540.91
2023-01-17T02:05:22.711Z,98542.81
2023-01-17T02:08:04.966Z,98541.03
2023-01-17T02:10:37.804Z,98534.03
2023-01-17T02:13:06.881Z,98535.69
2023-01-17T02:15:53.080Z,98535.69
2023-01-17T02:18:45.606Z,98540.19
2023-01-17T02:21:27.253Z,98555.16
2023-01-17T02:24:30.139Z,98561.63
2023-01-17T02:27:08.004Z,98560.03
2023-01-17T02:29:54.334Z,98555.88
2023-01-17T02:33:16.450Z,98565.47
2023-01-17T02:35:49.504Z,98563.94
2023-01-17T02:38:45.212Z,98557.75
2023-01-17T02:41:35.739Z,98556.94
2023-01-17T02:44:04.350Z,98562.16
2023-01-17T02:46:31.994Z,98557.97
2023-01-17T02:49:00.675Z,98555.47
2023-01-17T02:51:39.317Z,98560.06
2023-01-17T02:54:35.172Z,98553.56
2023-01-17T02:57:28.259Z,98560.56
2023-01-17T03:00:06.851Z,98562.34
2023-01-17T03:02:58.246Z,98557.94
2023-01-17T03:05:31.637Z,98559.41
2023-01-17T03:08:00.523Z,98545.31
2023-01-17T03:10:30.294Z,98547.84
2023-01-17T03:13:01.148Z,98545.22
2023-01-17T03:15:28.810Z,98546.06
2023-01-17T03:18:00.953Z,98545.22
2023-01-17T03:20:28.556Z,98534.84
2023-01-17T03:27:08.761Z,98532.78
2023-01-17T03:29:36.426Z,98540.91
2023-01-17T03:32:04.124Z,98535.06
2023-01-17T03:34:31.796Z,98539.44
2023-01-17T03:36:59.389Z,98548.03
2023-01-17T03:39:26.969Z,98548.03
2023-01-17T03:41:54.586Z,98552.22
2023-01-17T03:44:22.238Z,98559.00
2023-01-17T03:46:49.808Z,98554.50
2023-01-17T03:49:17.424Z,98560.28
2023-01-17T03:51:45.056Z,98554.09
2023-01-17T03:54:12.633Z,98559.22
2023-01-17T03:56:40.617Z,98559.94
2023-01-17T03:59:08.342Z,98570.28
2023-01-17T04:01:35.916Z,98568.63
2023-01-17T04:04:03.666Z,98565.38
2023-01-17T04:06:31.267Z,98569.03
2023-01-17T04:08:58.883Z,98573.63
2023-01-17T04:11:26.509Z,98565.09
2023-01-17T04:13:55.306Z,98571.03
2023-01-17T04:16:28.199Z,98565.59
2023-01-17T04:18:56.501Z,98562.97
2023-01-17T04:21:24.112Z,98568.00
2023-01-17T04:23:52.009Z,98562.69
2023-01-17T04:26:19.669Z,98556.59
2023-01-17T04:28:47.436Z,98553.16
2023-01-17T04:31:17.542Z,98558.28
2023-01-17T04:33:45.284Z,98558.28
2023-01-17T04:36:12.922Z,98555.88
2023-01-17T04:38:40.647Z,98556.72
2023-01-17T04:41:08.221Z,98549.69
2023-01-17T04:43:36.133Z,98556.72
2023-01-17T04:46:05.934Z,98555.25
2023-01-17T04:48:33.546Z,98546.03
2023-01-17T04:51:02.799Z,98543.72
2023-01-17T04:53:30.498Z,98552.50
2023-01-17T04:55:58.453Z,98543.84
2023-01-17T04:58:26.615Z,98549.81
2023-01-17T05:00:55.438Z,98554.84
2023-01-17T05:03:23.568Z,98540.91
2023-01-17T05:05:51.201Z,98553.88
2023-01-17T05:08:18.895Z,98549.50
2023-01-17T05:10:47.303Z,98547.69
2023-01-17T05:13:15.161Z,98547.81
2023-01-17T05:15:42.761Z,98547.00
2023-01-17T05:18:15.237Z,98546.25
2023-01-17T05:20:43.209Z,98541.03
2023-01-17T05:23:11.417Z,98541.09
2023-01-17T05:25:44.482Z,98539.44
2023-01-17T05:28:13.140Z,98531.81
2023-01-17T05:30:40.806Z,98537.97
2023-01-17T05:33:10.294Z,98535.25
2023-01-17T05:35:38.459Z,98531.59
2023-01-17T05:38:06.156Z,98533.38
2023-01-17T05:40:34.235Z,98531.72
2023-01-17T05:43:03.416Z,98536.13
2023-01-17T05:45:33.392Z,98540.47
2023-01-17T05:48:01.837Z,98539.66
2023-01-17T05:50:32.719Z,98539.56
2023-01-17T05:53:03.505Z,98540.41
2023-01-17T05:55:31.801Z,98550.63
2023-01-17T05:57:59.881Z,98549.81
2023-01-17T06:00:27.880Z,98546.34
2023-01-17T06:02:57.261Z,98544.66
2023-01-17T06:05:25.708Z,98549.06
2023-01-17T06:07:54.142Z,98546.56
2023-01-17T06:10:22.315Z,98549.38
2023-01-17T06:12:50.812Z,98552.00
2023-01-17T06:15:18.900Z,98552.09
2023-01-17T06:17:46.635Z,98558.97
2023-01-17T06:20:14.297Z,98563.47
2023-01-17T06:22:41.891Z,98560.13
2023-01-17T06:25:10.271Z,98563.47
2023-01-17T06:27:37.909Z,98558.25
2023-01-17T06:30:06.227Z,98567.56
2023-01-17T06:32:33.882Z,98560.47
2023-01-17T06:35:01.420Z,98567.47
2023-01-17T06:37:28.961Z,98567.47
2023-01-17T06:39:56.660Z,98565.88
2023-01-17T06:42:24.228Z,98552.09
2023-01-17T06:44:51.786Z,98547.88
2023-01-17T06:47:19.311Z,98551.44
2023-01-17T06:49:47.065Z,98548.00
2023-01-17T06:52:16.096Z,98555.84
2023-01-17T06:54:43.680Z,98554.19
2023-01-17T06:57:11.236Z,98545.59
2023-01-17T06:59:38.874Z,98546.53
2023-01-17T07:02:06.415Z,98547.66
2023-01-17T07:04:34.820Z,98551.44
2023-01-17T07:07:02.636Z,98565.63
2023-01-17T07:09:30.271Z,98571.06
2023-01-17T07:12:02.013Z,98559.97
2023-01-17T07:14:29.699Z,98570.50
2023-01-17T07:16:57.655Z,98558.41
2023-01-17T07:19:26.090Z,98572.41
2023-01-17T07:21:54.615Z,98578.34
2023-01-17T07:24:22.302Z,98579.28
2023-01-17T07:26:51.192Z,98587.13
2023-01-17T07:29:19.139Z,98595.69
2023-01-17T07:31:48.961Z,98582.53
2023-01-17T07:34:16.663Z,98582.44
2023-01-17T07:36:44.355Z,98579.09
2023-01-17T07:39:12.088Z,98586.94
2023-01-17T07:41:41.514Z,98583.47
2023-01-17T07:44:10.946Z,98585.25
2023-01-17T07:46:38.662Z,98588.78
2023-01-17T07:49:06.630Z,98582.84
2023-01-17T07:51:34.425Z,98588.16
2023-01-17T07:54:02.080Z,98601.31
2023-01-17T07:56:29.720Z,98586.69
2023-01-17T07:58:57.317Z,98597.97
2023-01-17T08:01:24.936Z,98617.00
2023-01-17T08:03:54.957Z,98613.03
2023-01-17T08:06:25.065Z,98603.03
2023-01-17T08:08:59.137Z,98604.41
2023-01-17T08:11:27.144Z,98606.50
2023-01-17T08:13:59.532Z,98614.78
2023-01-17T08:16:28.868Z,98614.38
2023-01-17T08:18:57.290Z,98614.19
2023-01-17T08:21:25.085Z,98606.16
2023-01-17T08:23:53.009Z,98610.41
2023-01-17T08:26:22.435Z,98610.00
2023-01-17T08:28:56.249Z,98611.28
2023-01-17T08:31:24.716Z,98611.63
2023-01-17T08:33:52.469Z,98610.06
2023-01-17T08:36:20.237Z,98609.09
2023-01-17T08:38:51.042Z,98607.66
2023-01-17T08:41:19.930Z,98607.44
2023-01-17T08:43:51.912Z,98609.94
2023-01-17T08:46:20.045Z,98614.47
2023-01-17T08:48:47.603Z,98615.59
2023-01-17T08:51:15.193Z,98614.88
2023-01-17T08:53:42.903Z,98618.53
2023-01-17T08:56:10.619Z,98623.00
2023-01-17T08:58:38.148Z,98635.38
2023-01-17T09:01:06.636Z,98628.66
2023-01-17T09:03:34.907Z,98625.31
2023-01-17T09:06:12.989Z,98635.03
2023-01-17T09:08:41.280Z,98631.50
2023-01-17T09:11:11.719Z,98627.00
2023-01-17T09:13:39.844Z,98626.03
2023-01-17T09:16:08.175Z,98627.63
2023-01-17T09:18:36.592Z,98626.78
2023-01-17T09:21:16.695Z,98623.34
2023-01-17T09:23:44.623Z,98620.31
2023-01-17T09:26:32.600Z,98623.13
2023-01-17T09:29:00.540Z,98627.84
2023-01-17T09:31:28.337Z,98627.75
2023-01-17T09:33:56.972Z,98620.72
2023-01-17T09:36:29.280Z,98629.41
2023-01-17T09:39:01.227Z,98631.81
2023-01-17T09:41:44.263Z,98622.09
2023-01-17T09:44:34.454Z,98625.41
2023-01-17T09:47:20.033Z,98618.94
2023-01-17T09:49:49.183Z,98619.44
2023-01-17T09:52:21.133Z,98629.59
2023-01-17T09:54:52.868Z,98623.31
2023-01-17T09:57:46.033Z,98632.72
2023-01-17T10:00:26.142Z,98627.28
2023-01-17T10:03:00.874Z,98621.72
2023-01-17T10:05:28.517Z,98614.16
2023-01-17T10:08:13.050Z,98622.19
2023-01-17T10:10:43.307Z,98613.69
2023-01-17T10:13:26.392Z,98620.06
2023-01-17T10:16:24.313Z,98610.69
2023-01-17T10:19:29.441Z,98617.78
2023-01-17T10:22:32.107Z,98612.81
2023-01-17T10:25:21.501Z,98630.50
2023-01-17T10:28:06.705Z,98623.84
2023-01-17T10:30:38.382Z,98620.78
2023-01-17T10:33:41.745Z,98635.00
2023-01-17T10:36:20.767Z,98639.78
2023-01-17T10:38:55.153Z,98638.50
2023-01-17T10:41:27.762Z,98636.25
2023-01-17T10:44:08.260Z,98647.00
2023-01-17T10:46:43.524Z,98649.78
2023-01-17T10:49:20.311Z,98655.44
2023-01-17T10:52:22.490Z,98662.03
2023-01-17T10:55:09.667Z,98660.56
2023-01-17T10:57:49.073Z,98664.72
2023-01-17T11:00:40.210Z,98667.75
2023-01-17T11:03:11.186Z,98650.75
2023-01-17T11:05:41.259Z,98653.75
2023-01-17T11:08:14.657Z,98638.56
2023-01-17T11:10:43.709Z,98642.19
2023-01-17T11:13:31.021Z,98647.34
2023-01-17T11:16:06.529Z,98649.03
2023-01-17T11:18:39.872Z,98650.44
2023-01-17T11:21:17.560Z,98642.69
2023-01-17T11:23:48.804Z,98633.72
2023-01-17T11:26:48.094Z,98630.94
2023-01-17T11:29:28.487Z,98628.69
2023-01-17T11:31:56.469Z,98637.94
2023-01-17T11:34:27.222Z,98628.69
2023-01-17T11:37:20.688Z,98634.44
2023-01-17T11:39:48.640Z,98636.47
2023-01-17T11:42:32.700Z,98619.50
2023-01-17T11:45:27.197Z,98636.13
2023-01-17T11:48:12.786Z,98642.41
2023-01-17T11:50:44.907Z,98652.25
2023-01-17T11:53:12.444Z,98647.91
2023-01-17T11:55:40.803Z,98648.88
2023-01-17T11:58:15.222Z,98639.44
2023-01-17T12:00:46.810Z,98632.00
2023-01-17T12:03:41.451Z,98637.16
2023-01-17T12:06:34.429Z,98631.16
2023-01-17T12:09:34.124Z,98634.81
2023-01-17T12:12:44.748Z,98629.88
2023-01-17T12:23:50.940Z,98622.41
2023-01-17T12:26:52.489Z,98616.16
2023-01-17T12:33:47.193Z,98623.31
2023-01-17T12:45:38.174Z,98630.13
2023-01-17T12:48:29.979Z,98624.75
2023-01-17T12:51:07.048Z,98624.91
2023-01-17T12:53:34.590Z,98629.56
2023-01-17T12:57:16.379Z,98631.41
2023-01-17T13:00:19.660Z,98621.91
2023-01-17T13:03:41.562Z,98618.66
2023-01-17T13:06:22.534Z,98614.28
2023-01-17T13:08:56.910Z,98616.41
2023-01-17T13:11:41.142Z,98605.63
2023-01-17T13:14:10.450Z,98591.72
2023-01-17T13:17:09.309Z,98594.34
2023-01-17T13:19:36.845Z,98597.16
2023-01-17T13:22:17.512Z,98600.00
2023-01-17T13:24:55.769Z,98598.00
2023-01-17T13:27:35.289Z,98594.88
2023-01-17T13:30:15.462Z,98600.59
2023-01-17T13:32:58.024Z,98587.31
2023-01-17T13:35:43.060Z,98584.81
2023-01-17T13:38:29.120Z,98573.38
2023-01-17T13:41:12.340Z,98574.03
2023-01-17T13:44:05.234Z,98580.75
2023-01-17T13:47:12.610Z,98573.69
2023-01-17T13:49:46.236Z,98570.56
2023-01-17T13:52:19.833Z,98572.75
2023-01-17T13:54:50.439Z,98570.75
2023-01-17T13:57:29.547Z,98580.50
2023-01-17T13:59:59.834Z,98581.38
2023-01-17T14:06:46.883Z,98586.00
2023-01-17T14:09:42.710Z,98587.66
2023-01-17T14:12:16.332Z,98587.66
2023-01-17T14:14:49.790Z,98581.50
2023-01-17T14:17:25.598Z,98582.06
2023-01-17T14:20:06.131Z,98576.41
2023-01-17T14:22:37.701Z,98575.22
2023-01-17T14:25:23.757Z,98574.84
2023-01-17T14:28:04.394Z,98579.41
2023-01-17T14:30:31.973Z,98574.91
2023-01-17T14:33:00.847Z,98567.53
2023-01-17T14:35:48.928Z,98570.81
2023-01-17T14:38:21.840Z,98563.81
2023-01-17T14:40:57.504Z,98568.09
2023-01-17T14:43:28.193Z,98564.66
2023-01-17T14:45:58.802Z,98559.00
2023-01-17T14:48:26.666Z,98556.78
2023-01-17T14:50:57.511Z,98556.31
2023-01-17T14:53:28.324Z,98556.88
2023-01-17T14:56:12.832Z,98555.38
2023-01-17T14:58:41.514Z,98562.66
2023-01-17T15:01:14.757Z,98556.34
2023-01-17T15:03:51.427Z,98559.97
2023-01-17T15:06:27.815Z,98568.59
2023-01-17T15:08:55.569Z,98575.75
2023-01-17T15:11:26.877Z,98580.78
2023-01-17T15:13:57.844Z,98575.13
2023-01-17T15:16:28.575Z,98583.63
2023-01-17T15:22:45.304Z,98579.19
2023-01-17T15:25:15.413Z,98580.00
2023-01-17T15:31:58.209Z,98568.75
2023-01-17T15:37:40.037Z,98566.06
2023-01-17T15:40:18.871Z,98575.22
2023-01-17T15:42:52.071Z,98574.91
2023-01-17T15:45:25.402Z,98571.03
2023-01-17T15:47:53.016Z,98572.38
2023-01-17T15:50:20.768Z,98571.09
2023-01-17T15:52:50.693Z,98570.69
2023-01-17T15:55:37.107Z,98568.59
2023-01-17T15:58:22.954Z,98564.56
2023-01-17T16:00:50.931Z,98563.38
2023-01-17T16:03:29.936Z,98556.00
2023-01-17T16:06:02.708Z,98559.06
2023-01-17T16:08:52.390Z,98560.28
2023-01-17T16:11:21.825Z,98558.88
2023-01-17T16:31:23.959Z,98588.03
2023-01-17T16:33:52.100Z,98582.78
2023-01-17T16:36:31.938Z,98581.94
2023-01-17T16:38:59.646Z,98582.66
2023-01-17T16:41:27.320Z,98586.94
2023-01-17T16:44:03.539Z,98586.38
2023-01-17T16:46:31.366Z,98580.28
2023-01-17T16:49:00.094Z,98584.72
2023-01-17T16:51:27.788Z,98597.97
2023-01-17T16:53:55.629Z,98591.16
2023-01-17T16:56:23.280Z,98586.47
2023-01-17T16:58:53.175Z,98575.69
2023-01-17T17:01:22.790Z,98578.47
2023-01-17T17:03:50.699Z,98591.63
2023-01-17T17:06:18.418Z,98591.38
2023-01-17T17:08:46.193Z,98595.31
2023-01-17T17:11:17.530Z,98600.28
2023-01-17T17:13:47.267Z,98606.97
2023-01-17T17:16:18.868Z,98612.56
2023-01-17T17:18:54.863Z,98607.63
2023-01-17T17:21:22.598Z,98604.72
2023-01-17T17:23:58.684Z,98599.56
2023-01-17T17:26:31.499Z,98605.09
2023-01-17T17:28:59.239Z,98599.00
2023-01-17T17:31:27.310Z,98591.50
2023-01-17T17:33:59.499Z,98589.63
2023-01-17T17:36:27.323Z,98592.22
2023-01-17T17:38:56.689Z,98597.41
2023-01-17T17:41:44.783Z,98600.69
2023-01-17T17:44:12.653Z,98604.63
2023-01-17T17:46:42.261Z,98603.22
2023-01-17T17:49:09.966Z,98600.03
2023-01-17T17:51:39.827Z,98605.53
2023-01-17T17:54:10.382Z,98606.59
2023-01-17T17:56:39.068Z,98605.88
2023-01-17T18:02:11.903Z,98598.25
2023-01-17T18:04:39.662Z,98593.13
2023-01-17T18:07:07.253Z,98589.78
2023-01-17T18:10:49.388Z,98599.72
2023-01-17T18:13:42.817Z,98610.03
2023-01-17T18:16:37.177Z,98613.75
2023-01-17T18:19:06.391Z,98609.41
2023-01-17T18:21:36.975Z,98607.03
2023-01-17T18:24:13.750Z,98612.44
2023-01-17T18:26:44.469Z,98604.94
2023-01-17T18:29:15.855Z,98605.19
2023-01-17T18:31:48.040Z,98608.03
2023-01-17T18:34:19.360Z,98613.06
2023-01-17T18:36:47.193Z,98616.50
2023-01-17T18:39:21.016Z,98631.22
2023-01-17T18:41:49.735Z,98635.34
2023-01-17T18:44:18.396Z,98648.97
2023-01-17T18:46:48.071Z,98639.06
2023-01-17T18:49:18.418Z,98640.72
2023-01-17T18:51:50.444Z,98652.91
2023-01-17T18:54:20.019Z,98650.97
2023-01-17T18:56:48.117Z,98658.88
2023-01-17T18:59:18.615Z,98669.63
2023-01-17T19:01:46.599Z,98663.69
2023-01-17T19:04:16.012Z,98653.41
2023-01-17T19:06:46.837Z,98652.81
2023-01-17T19:09:15.622Z,98646.25
2023-01-17T19:11:45.149Z,98644.00
2023-01-17T19:14:13.144Z,98641.63
2023-01-17T19:16:42.065Z,98647.13
2023-01-17T19:19:12.802Z,98655.94
2023-01-17T19:21:40.537Z,98655.00
2023-01-17T19:24:10.063Z,98654.28
2023-01-17T19:26:37.820Z,98652.47
2023-01-17T19:29:06.819Z,98650.69
2023-01-17T19:31:43.363Z,98643.75
2023-01-17T19:34:14.046Z,98649.75
2023-01-17T19:36:41.971Z,98655.69
2023-01-17T19:39:09.947Z,98652.00
2023-01-17T19:41:42.314Z,98654.38
2023-01-17T19:44:12.032Z,98661.88
2023-01-17T19:46:39.878Z,98658.06
2023-01-17T19:49:09.028Z,98656.97
2023-01-17T19:51:36.828Z,98656.88
2023-01-17T19:54:06.527Z,98655.78
2023-01-17T19:56:34.547Z,98655.78
2023-01-17T19:59:02.476Z,98656.63
2023-01-17T20:01:32.999Z,98655.78
2023-01-17T20:04:02.078Z,98676.69
2023-01-17T20:06:33.743Z,98667.00
2023-01-17T20:09:01.573Z,98674.78
2023-01-17T20:11:29.220Z,98666.91
2023-01-17T20:13:58.566Z,98677.16
2023-01-17T20:16:28.876Z,98670.34
2023-01-17T20:18:58.465Z,98668.69
2023-01-17T20:21:28.240Z,98654.97
2023-01-17T20:23:57.833Z,98656.72
2023-01-17T20:26:31.313Z,98661.41
2023-01-17T20:28:58.963Z,98645.03
2023-01-17T20:31:27.498Z,98650.44
2023-01-17T20:33:56.324Z,98665.25
2023-01-17T20:36:26.754Z,98664.50
2023-01-17T20:38:54.723Z,98676.81
2023-01-17T20:41:43.953Z,98682.31
2023-01-17T20:44:16.192Z,98687.81
2023-01-17T20:46:44.524Z,98682.69
2023-01-17T20:49:18.813Z,98670.63
2023-01-17T20:51:47.766Z,98670.16
2023-01-17T20:54:18.245Z,98665.16
2023-01-17T20:56:47.621Z,98664.56
2023-01-17T20:59:18.332Z,98662.19
2023-01-17T21:01:46.420Z,98659.88
2023-01-17T21:04:15.109Z,98653.44
2023-01-17T21:06:44.095Z,98650.56
2023-01-17T21:09:15.147Z,98653.81
2023-01-17T21:11:43.109Z,98647.81
2023-01-17T21:14:10.770Z,98645.09
2023-01-17T21:16:38.491Z,98654.78
2023-01-17T21:19:06.336Z,98659.28
2023-01-17T21:21:34.056Z,98683.88
2023-01-17T21:24:01.609Z,98698.81
2023-01-17T21:26:29.284Z,98700.84
2023-01-17T21:29:00.165Z,98702.72
2023-01-17T21:31:34.846Z,98694.34
2023-01-17T21:34:05.707Z,98688.28
2023-01-17T21:36:35.607Z,98665.47
2023-01-17T21:39:06.940Z,98655.84
2023-01-17T21:41:41.109Z,98658.34
2023-01-17T21:44:15.112Z,98666.09
2023-01-17T21:46:43.595Z,98674.69
2023-01-17T21:49:15.463Z,98686.97
2023-01-17T21:51:52.912Z,98681.72
2023-01-17T21:54:44.434Z,98693.91
2023-01-17T21:57:36.344Z,98700.84
2023-01-17T22:00:09.270Z,98708.81
2023-01-17T22:02:41.227Z,98714.91
2023-01-17T22:05:10.502Z,98704.41
2023-01-17T22:07:39.185Z,98720.03
2023-01-17T22:10:07.817Z,98719.22
2023-01-17T22:12:35.390Z,98724.47
2023-01-17T22:15:04.217Z,98715.72
2023-01-17T22:17:31.949Z,98713.22
2023-01-17T22:19:59.539Z,98714.19
2023-01-17T22:22:27.083Z,98714.19
2023-01-17T22:24:54.615Z,98714.19
2023-01-17T22:27:22.350Z,98715.97
2023-01-17T22:29:49.925Z,98708.22
2023-01-17T22:32:17.650Z,98708.44
2023-01-17T22:34:45.204Z,98692.84
2023-01-17T22:37:12.823Z,98705.00
2023-01-17T22:39:40.416Z,98715.34
2023-01-17T22:42:08.546Z,98721.94
2023-01-17T22:44:36.147Z,98732.94
2023-01-17T22:47:03.888Z,98719.34
2023-01-17T22:49:31.482Z,98710.16
2023-01-17T22:51:59.109Z,98715.91
2023-01-17T22:54:27.063Z,98718.28
2023-01-17T22:56:54.644Z,98716.25
2023-01-17T22:59:22.271Z,98721.28
2023-01-17T23:01:50.076Z,98713.16
2023-01-17T23:04:17.667Z,98714.59
2023-01-17T23:06:45.284Z,98720.44
2023-01-17T23:09:15.441Z,98712.22
2023-01-17T23:11:46.326Z,98702.28
2023-01-17T23:14:30.425Z,98704.69
2023-01-17T23:17:22.230Z,98704.31
2023-01-17T23:19:52.515Z,98715.41
2023-01-17T23:22:23.196Z,98715.16
2023-01-17T23:24:56.313Z,98709.09
2023-01-17T23:28:00.844Z,98708.34
2023-01-17T23:30:34.540Z,98704.31
2023-01-17T23:33:07.841Z,98698.31
2023-01-17T23:35:42.129Z,98703.81
2023-01-17T23:38:28.630Z,98708.25
2023-01-17T23:41:19.783Z,98726.63
2023-01-17T23:43:55.411Z,98729.41
2023-01-17T23:46:25.490Z,98735.50
2023-01-17T23:48:53.181Z,98737.88
2023-01-17T23:51:20.766Z,98733.34
2023-01-17T23:53:48.432Z,98728.78
2023-01-17T23:56:23.149Z,98726.16
2023-01-17T23:58:50.945Z,98738.22
